Time;durP1;ratioP1;P1;durP2;ratioP2;P2;SDS_P1;SDS_P2;PMS_P1;PMS_P2;Temp;Humidity;BMP_temperature;BMP_pressure;BME280_temperature;BME280_humidity;BME280_pressure;Samples;Min_cycle;Max_cycle;Signal;HPM_P1;HPM_P2
2022/01/04 00:01:38;;;;;;;;;;;;;;;14.38;63.34;100237.94;5061152;28;20385;-82
2022/01/04 00:04:03;;;;;;;;;;;;;;;15.29;61.38;100217.50;5080285;28;20366;-82
2022/01/04 00:06:28;;;;;;;;;;;;;;;16.25;56.45;100202.66;5079751;28;20388;-82
2022/01/04 00:08:59;;;;;;;;;;;;;;;15.54;59.85;100210.16;5062132;28;19998;-82
2022/01/04 00:11:41;;;;;;;;;;;;;;;15.73;59.47;100206.81;5061337;28;19916;-82
2022/01/04 00:14:07;;;;;;;;;;;;;;;15.23;61.13;100198.91;5061219;28;19928;-83
2022/01/04 00:16:32;;;;;;;;;;;;;;;14.95;63.01;100190.16;5079477;28;19912;-83
2022/01/04 00:18:57;;;;;;;;;;;;;;;14.98;62.30;100178.16;5062120;28;20297;-83
2022/01/04 00:21:22;;;;;;;;;;;;;;;15.74;60.39;100184.88;5063450;28;19920;-82
2022/01/04 00:23:47;;;;;;;;;;;;;;;14.50;64.72;100179.88;5081266;28;19970;-81
2022/01/04 00:26:13;;;;;;;;;;;;;;;14.52;64.54;100171.59;5081651;28;19924;-82
2022/01/04 00:28:38;;;;;;;;;;;;;;;15.48;59.72;100165.16;5081470;28;19917;-82
2022/01/04 00:31:04;;;;;;;;;;;;;;;14.77;63.76;100169.78;5062942;28;19927;-83
2022/01/04 00:33:29;;;;;;;;;;;;;;;14.38;64.46;100159.00;5063022;28;19923;-83
2022/01/04 00:35:54;;;;;;;;;;;;;;;14.94;61.84;100150.28;5061271;28;19917;-82
2022/01/04 00:38:20;;;;;;;;;;;;;;;14.92;61.70;100144.09;5061082;28;20361;-82
2022/01/04 00:40:45;;;;;;;;;;;;;;;15.29;60.88;100140.34;5057936;28;19927;-81
2022/01/04 00:43:10;;;;;;;;;;;;;;;14.92;61.17;100132.34;5058460;28;19962;-82
2022/01/04 00:45:37;;;;;;;;;;;;;;;15.02;62.96;100136.06;5058390;28;19920;-82
2022/01/04 00:50:29;;;;;;;;;;;;;;;15.27;60.17;100124.13;5060586;28;19920;-81
2022/01/04 00:52:54;;;;;;;;;;;;;;;14.85;63.95;100127.34;5059680;28;20054;-82
2022/01/04 00:55:20;;;;;;;;;;;;;;;15.50;59.91;100113.25;5058389;28;19917;-82
2022/01/04 00:57:45;;;;;;;;;;;;;;;15.01;62.27;100123.44;5057676;28;19950;-82
2022/01/04 01:00:11;;;;;;;;;;;;;;;14.37;64.58;100113.72;5056936;28;19921;-82
2022/01/04 01:02:37;;;;;;;;;;;;;;;15.40;59.28;100110.41;5056606;28;19921;-83
2022/01/04 01:05:02;;;;;;;;;;;;;;;15.53;60.28;100104.81;5059283;28;19955;-83
2022/01/04 01:07:28;;;;;;;;;;;;;;;15.56;59.76;100102.69;5059163;28;19942;-82
2022/01/04 01:12:37;;;;;;;;;;;;;;;14.67;63.09;100096.09;5060539;28;19927;-82
2022/01/04 01:15:03;;;;;;;;;;;;;;;15.02;61.20;100096.09;5059964;28;19962;-82
2022/01/04 01:17:29;;;;;;;;;;;;;;;14.93;61.39;100095.91;5057964;28;19927;-82
2022/01/04 01:19:54;;;;;;;;;;;;;;;14.64;62.89;100093.59;5057800;28;19920;-82
2022/01/04 01:22:22;;;;;;;;;;;;;;;15.46;58.33;100096.28;5057743;28;20003;-82
2022/01/04 01:24:47;;;;;;;;;;;;;;;14.74;62.74;100085.59;5055990;28;19928;-81
2022/01/04 01:27:12;;;;;;;;;;;;;;;15.51;59.92;100088.59;5057474;28;19917;-82
2022/01/04 01:29:37;;;;;;;;;;;;;;;15.31;59.25;100086.56;5058134;28;20084;-81
2022/01/04 01:32:03;;;;;;;;;;;;;;;15.03;59.59;100084.19;5056059;28;20007;-82
2022/01/04 01:34:28;;;;;;;;;;;;;;;15.46;58.35;100077.19;5056424;28;19923;-83
2022/01/04 01:36:53;;;;;;;;;;;;;;;14.93;60.63;100077.75;5055902;28;19917;-83
2022/01/04 01:39:20;;;;;;;;;;;;;;;15.91;58.69;100066.28;5056514;28;19917;-82
2022/01/04 01:41:45;;;;;;;;;;;;;;;14.99;60.36;100062.75;5056053;28;19951;-83
2022/01/04 01:44:10;;;;;;;;;;;;;;;13.87;66.26;100077.59;5057448;28;20007;-83
2022/01/04 01:46:35;;;;;;;;;;;;;;;14.80;62.65;100072.38;5058239;28;20374;-82
2022/01/04 01:49:01;;;;;;;;;;;;;;;14.58;62.50;100061.38;5056428;28;19959;-82
2022/01/04 01:51:28;;;;;;;;;;;;;;;14.58;62.26;100055.94;5056524;28;20390;-82
2022/01/04 01:53:53;;;;;;;;;;;;;;;15.41;60.12;100058.50;5057083;28;19916;-82
2022/01/04 01:56:18;;;;;;;;;;;;;;;15.20;61.20;100047.44;5057942;28;20004;-82
2022/01/04 01:58:43;;;;;;;;;;;;;;;15.84;58.05;100047.81;5058000;28;19916;-82
2022/01/04 02:01:09;;;;;;;;;;;;;;;14.96;60.94;100041.22;5056104;28;20054;-83
2022/01/04 02:03:35;;;;;;;;;;;;;;;15.73;58.09;100037.75;5057985;28;19917;-83
2022/01/04 02:06:01;;;;;;;;;;;;;;;14.96;61.08;100028.47;5056222;28;19924;-82
2022/01/04 02:08:26;;;;;;;;;;;;;;;14.83;61.93;100039.47;5057949;28;20386;-82
2022/01/04 02:10:51;;;;;;;;;;;;;;;15.15;60.69;100027.88;5057054;28;20377;-82
2022/01/04 02:13:17;;;;;;;;;;;;;;;14.39;61.77;100030.16;5059759;28;20366;-82
2022/01/04 02:15:42;;;;;;;;;;;;;;;14.14;63.24;100020.25;5058976;28;19917;-81
2022/01/04 02:18:08;;;;;;;;;;;;;;;15.14;61.54;100019.81;5057228;28;19939;-82
2022/01/04 02:20:33;;;;;;;;;;;;;;;15.41;59.43;100014.00;5057933;28;19921;-82
2022/01/04 02:22:58;;;;;;;;;;;;;;;15.76;58.28;100010.22;5056918;28;20021;-82
2022/01/04 02:25:24;;;;;;;;;;;;;;;14.72;61.54;100014.94;5056989;28;20367;-83
2022/01/04 02:27:51;;;;;;;;;;;;;;;14.42;62.88;100015.41;5056592;28;20392;-82
2022/01/04 02:30:17;;;;;;;;;;;;;;;15.28;60.39;100011.41;5057125;28;19939;-82
2022/01/04 02:32:44;;;;;;;;;;;;;;;15.28;59.86;100005.97;5057506;28;19913;-83
2022/01/04 02:35:10;;;;;;;;;;;;;;;15.04;61.92;99990.59;5055881;28;19924;-83
2022/01/04 02:37:35;;;;;;;;;;;;;;;15.11;59.82;99982.78;5057377;28;19939;-81
2022/01/04 02:40:01;;;;;;;;;;;;;;;15.28;60.86;99975.97;5056335;28;19921;-82
2022/01/04 02:42:26;;;;;;;;;;;;;;;14.21;63.06;99985.31;5057017;28;20399;-83
2022/01/04 02:44:51;;;;;;;;;;;;;;;14.16;64.44;99972.03;5058140;28;20283;-83
2022/01/04 02:47:17;;;;;;;;;;;;;;;13.78;65.24;99962.22;5058703;28;20592;-83
2022/01/04 02:49:43;;;;;;;;;;;;;;;15.09;61.29;99962.97;5057013;28;19927;-83
2022/01/04 02:52:08;;;;;;;;;;;;;;;14.20;63.71;99973.53;5058733;28;20021;-81
2022/01/04 02:54:33;;;;;;;;;;;;;;;14.57;63.23;99967.09;5056906;28;19940;-81
2022/01/04 02:56:59;;;;;;;;;;;;;;;14.01;65.48;99965.94;5056407;28;20376;-82
2022/01/04 02:59:24;;;;;;;;;;;;;;;14.67;62.60;99958.13;5055894;28;19917;-83
2022/01/04 03:01:50;;;;;;;;;;;;;;;14.86;62.98;99956.66;5056384;28;19916;-82
2022/01/04 03:04:15;;;;;;;;;;;;;;;14.99;60.93;99951.09;5057080;28;19923;-82
2022/01/04 03:06:40;;;;;;;;;;;;;;;14.52;63.33;99952.00;5056898;28;19924;-82
2022/01/04 03:09:06;;;;;;;;;;;;;;;14.39;62.50;99947.63;5057821;28;19916;-82
2022/01/04 03:11:32;;;;;;;;;;;;;;;13.99;64.80;99938.88;5056814;28;19917;-82
2022/01/04 03:13:57;;;;;;;;;;;;;;;15.15;60.66;99934.38;5055897;28;20293;-82
2022/01/04 03:16:22;;;;;;;;;;;;;;;15.66;59.30;99920.16;5056311;28;19916;-82
2022/01/04 03:19:03;;;;;;;;;;;;;;;14.80;61.68;99930.78;5057297;28;19939;-82
2022/01/04 03:21:36;;;;;;;;;;;;;;;14.51;61.87;99925.78;5058343;28;19924;-82
2022/01/04 03:24:02;;;;;;;;;;;;;;;14.37;63.95;99915.09;5056445;28;19917;-82
2022/01/04 03:26:27;;;;;;;;;;;;;;;15.13;60.24;99901.81;5056278;28;19943;-81
2022/01/04 03:28:53;;;;;;;;;;;;;;;14.73;62.23;99898.72;5057308;28;19932;-81
2022/01/04 03:31:18;;;;;;;;;;;;;;;15.02;60.66;99893.63;5059791;28;19917;-82
2022/01/04 03:33:43;;;;;;;;;;;;;;;14.45;62.71;99890.88;5060216;28;19913;-82
2022/01/04 03:36:08;;;;;;;;;;;;;;;14.29;63.19;99884.91;5059342;28;19956;-82
2022/01/04 03:38:34;;;;;;;;;;;;;;;15.20;60.84;99875.81;5061260;28;19924;-82
2022/01/04 03:40:59;;;;;;;;;;;;;;;15.44;59.30;99869.28;5060585;28;20000;-82
2022/01/04 03:43:25;;;;;;;;;;;;;;;14.19;63.24;99865.72;5060642;28;19916;-82
2022/01/04 03:45:50;;;;;;;;;;;;;;;14.59;60.96;99878.88;5060944;28;19978;-82
2022/01/04 03:48:15;;;;;;;;;;;;;;;14.75;60.40;99862.22;5061298;28;20414;-81
2022/01/04 03:50:41;;;;;;;;;;;;;;;15.07;59.69;99853.28;5059539;28;20396;-83
2022/01/04 03:53:06;;;;;;;;;;;;;;;15.88;57.44;99856.50;5059292;28;19966;-83
2022/01/04 03:55:32;;;;;;;;;;;;;;;15.17;58.29;99851.53;5059104;28;19917;-82
2022/01/04 03:57:57;;;;;;;;;;;;;;;15.35;58.32;99842.81;5059526;28;20005;-82
2022/01/04 04:00:22;;;;;;;;;;;;;;;13.92;63.01;99841.53;5059280;28;19917;-82
2022/01/04 04:02:47;;;;;;;;;;;;;;;14.92;60.48;99832.75;5060480;28;19942;-82
2022/01/04 04:05:13;;;;;;;;;;;;;;;15.16;58.82;99833.44;5059591;28;19952;-81
2022/01/04 04:07:38;;;;;;;;;;;;;;;14.67;61.67;99827.47;5059079;28;19917;-81
2022/01/04 04:10:04;;;;;;;;;;;;;;;14.63;60.47;99836.84;5058492;28;20015;-82
2022/01/04 04:12:29;;;;;;;;;;;;;;;14.94;59.79;99826.19;5059868;28;19924;-81
2022/01/04 04:14:55;;;;;;;;;;;;;;;15.13;58.68;99825.53;5060307;28;20398;-82
2022/01/04 04:17:21;;;;;;;;;;;;;;;14.86;60.41;99825.94;5060479;28;19920;-82
2022/01/04 04:19:46;;;;;;;;;;;;;;;15.33;59.02;99823.00;5061183;28;19935;-82
2022/01/04 04:22:11;;;;;;;;;;;;;;;14.94;58.84;99820.72;5061110;28;19921;-83
2022/01/04 04:24:36;;;;;;;;;;;;;;;14.91;60.02;99815.53;5059019;28;19921;-82
2022/01/04 04:27:02;;;;;;;;;;;;;;;15.39;58.34;99812.44;5058333;28;19964;-82
2022/01/04 04:29:27;;;;;;;;;;;;;;;14.35;61.20;99816.41;5076305;28;20302;-83
2022/01/04 04:31:52;;;;;;;;;;;;;;;15.17;59.46;99809.78;5060370;28;19923;-83
2022/01/04 04:34:18;;;;;;;;;;;;;;;15.27;59.80;99812.63;5076760;28;19921;-83
2022/01/04 04:36:43;;;;;;;;;;;;;;;15.26;57.88;99799.97;5060480;28;19908;-82
2022/01/04 04:39:08;;;;;;;;;;;;;;;15.22;59.23;99794.78;5059578;28;19917;-82
2022/01/04 04:41:33;;;;;;;;;;;;;;;14.85;60.42;99792.38;5057034;28;20408;-82
2022/01/04 04:43:58;;;;;;;;;;;;;;;14.16;63.01;99790.69;5059629;28;19978;-82
2022/01/04 04:46:24;;;;;;;;;;;;;;;14.42;61.70;99795.88;5058983;28;20008;-82
2022/01/04 04:48:49;;;;;;;;;;;;;;;13.69;64.16;99788.97;5059821;28;20008;-81
2022/01/04 04:51:14;;;;;;;;;;;;;;;14.75;61.39;99786.00;5059225;28;19927;-83
2022/01/04 04:53:39;;;;;;;;;;;;;;;15.06;58.70;99786.16;5057940;28;19952;-82
2022/01/04 04:56:05;;;;;;;;;;;;;;;14.73;60.22;99784.38;5056861;28;19913;-82
2022/01/04 04:58:31;;;;;;;;;;;;;;;14.89;59.93;99782.13;5058558;28;19916;-81
2022/01/04 05:00:56;;;;;;;;;;;;;;;14.73;60.19;99777.06;5057098;28;19924;-81
2022/01/04 05:03:23;;;;;;;;;;;;;;;14.79;60.48;99782.00;5057435;28;19970;-80
2022/01/04 05:05:48;;;;;;;;;;;;;;;14.65;60.76;99780.44;5057359;28;20008;-82
2022/01/04 05:08:13;;;;;;;;;;;;;;;15.05;59.26;99781.69;5057073;28;19966;-81
2022/01/04 05:10:38;;;;;;;;;;;;;;;15.31;57.77;99762.28;5056867;28;19924;-81
2022/01/04 05:13:03;;;;;;;;;;;;;;;14.62;60.60;99758.91;5057126;28;19987;-81
2022/01/04 05:15:29;;;;;;;;;;;;;;;15.03;59.18;99764.63;5056505;28;19923;-81
2022/01/04 05:17:54;;;;;;;;;;;;;;;14.48;61.17;99754.56;5056468;28;20000;-81
2022/01/04 05:20:19;;;;;;;;;;;;;;;14.94;58.96;99757.22;5058065;28;20362;-82
2022/01/04 05:22:44;;;;;;;;;;;;;;;15.32;58.57;99758.59;5056560;28;19924;-82
2022/01/04 05:25:10;;;;;;;;;;;;;;;14.07;63.00;99760.59;5056657;28;20011;-81
2022/01/04 05:27:35;;;;;;;;;;;;;;;15.31;58.67;99755.00;5056977;28;19964;-81
2022/01/04 05:30:00;;;;;;;;;;;;;;;15.76;57.32;99757.50;5056564;28;19924;-81
2022/01/04 05:32:26;;;;;;;;;;;;;;;15.12;59.08;99749.38;5056635;28;19924;-81
2022/01/04 05:34:51;;;;;;;;;;;;;;;15.16;59.84;99746.25;5058287;28;19924;-81
2022/01/04 05:37:16;;;;;;;;;;;;;;;14.18;62.09;99744.31;5058743;28;19920;-81
2022/01/04 05:39:41;;;;;;;;;;;;;;;14.56;60.04;99745.75;5058925;28;19980;-81
2022/01/04 05:42:08;;;;;;;;;;;;;;;14.18;61.53;99738.88;5062424;28;19924;-81
2022/01/04 05:44:34;;;;;;;;;;;;;;;14.45;62.04;99754.81;5060957;28;19924;-81
2022/01/04 05:46:59;;;;;;;;;;;;;;;14.78;60.58;99742.19;5078878;28;19916;-81
2022/01/04 05:49:25;;;;;;;;;;;;;;;14.30;63.21;99739.75;5077567;28;19920;-81
2022/01/04 05:51:50;;;;;;;;;;;;;;;14.22;62.61;99748.53;5061064;28;19920;-81
2022/01/04 05:54:15;;;;;;;;;;;;;;;14.07;64.32;99742.47;5060453;28;20378;-82
2022/01/04 05:56:40;;;;;;;;;;;;;;;14.46;62.52;99742.06;5060219;28;19962;-80
2022/01/04 05:59:06;;;;;;;;;;;;;;;12.87;67.20;99740.81;5062012;28;19943;-80
2022/01/04 06:01:31;;;;;;;;;;;;;;;14.95;61.42;99724.44;5059186;28;19999;-81
2022/01/04 06:03:56;;;;;;;;;;;;;;;14.38;62.29;99718.19;5061768;28;19921;-82
2022/01/04 06:06:21;;;;;;;;;;;;;;;13.46;63.79;99721.81;5061218;28;20423;-81
2022/01/04 06:08:48;;;;;;;;;;;;;;;14.83;61.54;99722.75;5062398;28;19942;-82
2022/01/04 06:11:30;;;;;;;;;;;;;;;14.57;61.40;99719.41;5063036;28;19917;-83
2022/01/04 06:16:40;;;;;;;;;;;;;;;13.69;64.47;99719.16;5081361;28;20345;-83
2022/01/04 06:19:05;;;;;;;;;;;;;;;14.79;60.38;99710.38;5063079;28;19916;-84
2022/01/04 06:21:30;;;;;;;;;;;;;;;13.63;65.85;99717.81;5077536;28;20386;-84
2022/01/04 06:23:57;;;;;;;;;;;;;;;14.43;62.69;99720.53;5057878;28;20377;-84
2022/01/04 06:26:23;;;;;;;;;;;;;;;14.84;61.07;99725.31;5060029;28;20273;-84
2022/01/04 06:28:48;;;;;;;;;;;;;;;14.53;61.26;99716.94;5060192;28;20012;-84
2022/01/04 06:31:13;;;;;;;;;;;;;;;14.51;62.41;99708.03;5059762;28;19916;-83
2022/01/04 06:33:39;;;;;;;;;;;;;;;15.05;60.77;99700.88;5058951;28;19948;-84
2022/01/04 06:36:04;;;;;;;;;;;;;;;14.32;62.28;99694.22;5057795;28;19924;-84
2022/01/04 06:38:29;;;;;;;;;;;;;;;13.88;64.10;99687.81;5058485;28;19962;-84
2022/01/04 06:40:54;;;;;;;;;;;;;;;14.59;62.22;99685.63;5056817;28;20480;-82
2022/01/04 06:43:20;;;;;;;;;;;;;;;14.74;61.67;99669.06;5059777;28;19917;-83
2022/01/04 06:45:45;;;;;;;;;;;;;;;14.93;60.41;99673.78;5076365;28;19917;-84
2022/01/04 06:48:10;;;;;;;;;;;;;;;14.31;61.14;99677.03;5058219;28;19917;-83
2022/01/04 06:50:36;;;;;;;;;;;;;;;14.90;60.31;99672.22;5077174;28;19963;-84
2022/01/04 06:53:02;;;;;;;;;;;;;;;14.51;61.64;99683.56;5076215;28;20568;-82
2022/01/04 06:55:27;;;;;;;;;;;;;;;15.12;59.32;99687.59;5058078;28;19921;-82
2022/01/04 06:57:52;;;;;;;;;;;;;;;15.10;60.87;99685.97;5056875;28;19917;-82
2022/01/04 07:00:18;;;;;;;;;;;;;;;15.60;58.61;99672.59;5057633;28;19916;-82
2022/01/04 07:02:44;;;;;;;;;;;;;;;14.47;61.63;99668.47;5056911;28;19917;-82
2022/01/04 07:05:09;;;;;;;;;;;;;;;14.93;60.47;99661.06;5056820;28;19940;-82
2022/01/04 07:07:34;;;;;;;;;;;;;;;14.21;62.88;99662.47;5056753;28;20362;-82
2022/01/04 07:09:59;;;;;;;;;;;;;;;14.97;60.02;99654.34;5056089;28;20364;-82
2022/01/04 07:12:25;;;;;;;;;;;;;;;14.89;59.93;99645.97;5075002;28;20378;-82
2022/01/04 07:14:51;;;;;;;;;;;;;;;14.37;62.49;99643.00;5056379;28;19916;-82
2022/01/04 07:17:16;;;;;;;;;;;;;;;14.78;61.06;99643.28;5056752;28;19980;-82
2022/01/04 07:19:41;;;;;;;;;;;;;;;14.99;60.63;99646.03;5056298;28;19931;-82
2022/01/04 07:22:07;;;;;;;;;;;;;;;14.45;61.49;99656.00;5055795;28;20015;-82
2022/01/04 07:24:32;;;;;;;;;;;;;;;13.73;65.37;99658.13;5056530;28;19916;-82
2022/01/04 07:26:57;;;;;;;;;;;;;;;14.64;63.44;99655.34;5073748;28;19916;-82
2022/01/04 07:29:22;;;;;;;;;;;;;;;14.70;64.01;99652.09;5074567;28;19928;-82
2022/01/04 07:31:48;;;;;;;;;;;;;;;14.52;63.89;99655.34;5056733;28;19923;-82
2022/01/04 07:34:13;;;;;;;;;;;;;;;13.88;65.76;99644.31;5057539;28;19924;-81
2022/01/04 07:36:39;;;;;;;;;;;;;;;13.44;68.49;99661.31;5057276;28;19916;-80
2022/01/04 07:39:05;;;;;;;;;;;;;;;14.30;64.69;99660.84;5056651;28;20267;-82
2022/01/04 07:41:30;;;;;;;;;;;;;;;15.02;60.75;99662.13;5055876;28;19943;-82
2022/01/04 07:43:55;;;;;;;;;;;;;;;14.42;62.43;99661.66;5056642;28;19916;-82
2022/01/04 07:46:21;;;;;;;;;;;;;;;14.69;60.65;99664.00;5056676;28;19920;-82
2022/01/04 07:48:47;;;;;;;;;;;;;;;13.36;63.71;99665.63;5075940;28;20354;-82
2022/01/04 07:51:12;;;;;;;;;;;;;;;14.41;62.83;99652.66;5058064;28;19921;-82
2022/01/04 07:53:37;;;;;;;;;;;;;;;14.15;64.41;99650.22;5058034;28;19926;-81
2022/01/04 07:56:03;;;;;;;;;;;;;;;13.97;66.24;99649.00;5056903;28;19956;-81
2022/01/04 07:58:29;;;;;;;;;;;;;;;14.84;61.83;99653.66;5057376;28;19924;-82
2022/01/04 08:00:54;;;;;;;;;;;;;;;14.34;63.51;99663.19;5057990;28;19917;-81
2022/01/04 08:03:20;;;;;;;;;;;;;;;13.91;65.40;99663.09;5057679;28;19917;-81
2022/01/04 08:05:45;;;;;;;;;;;;;;;14.20;63.95;99660.72;5074535;28;19974;-81
2022/01/04 08:08:10;;;;;;;;;;;;;;;14.43;63.67;99660.69;5055150;28;19917;-81
2022/01/04 08:10:36;;;;;;;;;;;;;;;14.44;63.20;99668.72;5055440;28;19921;-81
2022/01/04 08:13:01;;;;;;;;;;;;;;;14.20;62.06;99670.75;5072915;28;19927;-81
2022/01/04 08:15:27;;;;;;;;;;;;;;;13.87;65.04;99669.75;5056135;28;20334;-81
2022/01/04 08:17:52;;;;;;;;;;;;;;;14.63;60.84;99667.22;5076811;28;20294;-81
2022/01/04 08:20:18;;;;;;;;;;;;;;;14.44;60.69;99668.72;5075200;28;19916;-81
2022/01/04 08:22:43;;;;;;;;;;;;;;;15.04;59.84;99674.63;5056397;28;19925;-81
2022/01/04 08:25:10;;;;;;;;;;;;;;;14.96;60.81;99687.16;5059698;28;19963;-81
2022/01/04 08:27:36;;;;;;;;;;;;;;;13.88;63.33;99693.25;5055288;28;19991;-81
2022/01/04 08:30:01;;;;;;;;;;;;;;;14.63;61.34;99699.88;5054803;28;20358;-80
2022/01/04 08:32:26;;;;;;;;;;;;;;;15.04;60.48;99698.28;5073997;28;19978;-81
2022/01/04 08:34:51;;;;;;;;;;;;;;;14.44;61.75;99704.09;5053498;28;19928;-80
2022/01/04 08:37:17;;;;;;;;;;;;;;;14.25;62.47;99699.31;5070255;28;19974;-81
2022/01/04 08:39:42;;;;;;;;;;;;;;;14.66;62.29;99711.38;5077505;28;19920;-81
2022/01/04 08:42:07;;;;;;;;;;;;;;;14.74;62.02;99707.16;5060370;28;20007;-81
2022/01/04 08:44:33;;;;;;;;;;;;;;;15.41;60.44;99706.00;5076576;28;19924;-82
2022/01/04 08:46:59;;;;;;;;;;;;;;;14.53;61.55;99716.09;5076665;28;19917;-80
2022/01/04 08:49:24;;;;;;;;;;;;;;;14.61;64.19;99718.19;5058724;28;19924;-81
2022/01/04 08:51:49;;;;;;;;;;;;;;;14.40;62.62;99716.22;5059516;28;19916;-81
2022/01/04 08:54:15;;;;;;;;;;;;;;;13.91;64.68;99709.31;5059486;28;19916;-82
2022/01/04 08:56:40;;;;;;;;;;;;;;;14.93;62.03;99706.47;5076539;28;19975;-82
2022/01/04 08:59:08;;;;;;;;;;;;;;;15.42;59.76;99710.47;5076169;28;20332;-81
2022/01/04 09:01:33;;;;;;;;;;;;;;;15.58;58.64;99707.31;5058167;28;19916;-81
2022/01/04 09:03:58;;;;;;;;;;;;;;;14.70;60.80;99707.44;5058342;28;20343;-80
2022/01/04 09:06:24;;;;;;;;;;;;;;;15.86;57.74;99696.72;5058348;28;19916;-81
2022/01/04 09:08:50;;;;;;;;;;;;;;;15.35;58.96;99696.53;5058703;28;19979;-82
2022/01/04 09:11:17;;;;;;;;;;;;;;;15.30;59.30;99685.13;5058702;28;19928;-82
2022/01/04 09:13:44;;;;;;;;;;;;;;;15.67;57.64;99694.69;5058697;28;20385;-81
2022/01/04 09:18:45;;;;;;;;;;;;;;;16.11;56.53;99698.16;5072988;28;19938;-82
2022/01/04 09:21:11;;;;;;;;;;;;;;;15.83;56.00;99700.56;5057766;28;19927;-83
2022/01/04 09:23:37;;;;;;;;;;;;;;;15.96;57.63;99694.91;5059490;28;19924;-84
2022/01/04 09:26:03;;;;;;;;;;;;;;;16.05;56.65;99699.53;5076834;28;19978;-83
2022/01/04 09:28:28;;;;;;;;;;;;;;;15.04;59.97;99704.56;5057329;28;19934;-83
2022/01/04 09:30:54;;;;;;;;;;;;;;;15.87;57.08;99698.47;5076343;28;19924;-82
2022/01/04 09:33:20;;;;;;;;;;;;;;;16.16;56.76;99695.84;5076267;28;19916;-81
2022/01/04 09:35:45;;;;;;;;;;;;;;;15.92;57.75;99697.03;5058941;28;19962;-81
2022/01/04 09:38:10;;;;;;;;;;;;;;;16.76;54.76;99700.50;5057825;28;19917;-81
2022/01/04 09:40:37;;;;;;;;;;;;;;;16.28;55.72;99694.75;5058189;28;19921;-81
2022/01/04 09:43:03;;;;;;;;;;;;;;;14.80;60.81;99707.50;5059083;28;19920;-81
2022/01/04 09:45:29;;;;;;;;;;;;;;;15.85;57.08;99711.34;5059963;28;19917;-82
2022/01/04 09:47:54;;;;;;;;;;;;;;;16.93;54.04;99705.28;5076004;28;19923;-82
2022/01/04 09:50:19;;;;;;;;;;;;;;;16.19;56.37;99711.94;5057714;28;19920;-82
2022/01/04 09:52:49;;;;;;;;;;;;;;;16.07;56.46;99718.50;5074852;28;19921;-82
2022/01/04 09:55:15;;;;;;;;;;;;;;;16.16;56.53;99714.09;5059111;28;19916;-82
2022/01/04 09:57:41;;;;;;;;;;;;;;;15.70;57.59;99711.69;5076288;28;19917;-82
2022/01/04 10:00:07;;;;;;;;;;;;;;;16.14;55.87;99708.78;5077918;28;19924;-82
2022/01/04 10:02:33;;;;;;;;;;;;;;;16.01;56.13;99713.59;5058981;28;20358;-81
2022/01/04 10:05:18;;;;;;;;;;;;;;;15.77;56.56;99709.25;5058845;28;19962;-82
2022/01/04 10:07:43;;;;;;;;;;;;;;;15.35;57.43;99710.16;5059467;28;19916;-82
2022/01/04 10:10:10;;;;;;;;;;;;;;;15.74;56.10;99709.53;5078743;28;19924;-82
2022/01/04 10:12:49;;;;;;;;;;;;;;;16.24;54.34;99701.47;5060450;28;20362;-82
2022/01/04 10:15:29;;;;;;;;;;;;;;;16.28;54.82;99702.94;5077742;28;19967;-81
2022/01/04 10:17:55;;;;;;;;;;;;;;;15.34;56.66;99705.69;5059207;28;19923;-81
2022/01/04 10:20:20;;;;;;;;;;;;;;;15.92;55.45;99702.47;5058029;28;20381;-81
2022/01/04 10:22:45;;;;;;;;;;;;;;;15.68;56.15;99694.56;5057131;28;19921;-80
2022/01/04 10:25:13;;;;;;;;;;;;;;;14.79;58.77;99694.03;5058412;28;19916;-81
2022/01/04 10:27:40;;;;;;;;;;;;;;;14.46;58.93;99698.53;5059453;28;19917;-81
2022/01/04 10:30:15;;;;;;;;;;;;;;;15.23;56.98;99693.00;5059672;28;19923;-81
2022/01/04 10:32:59;;;;;;;;;;;;;;;15.07;57.91;99684.41;5060390;28;19913;-82
2022/01/04 10:35:29;;;;;;;;;;;;;;;14.93;57.75;99691.03;5076938;28;20011;-83
2022/01/04 10:37:56;;;;;;;;;;;;;;;14.94;58.23;99691.88;5076174;28;19924;-82
2022/01/04 10:40:21;;;;;;;;;;;;;;;15.33;57.53;99692.19;5056896;28;20497;-80
2022/01/04 10:42:47;;;;;;;;;;;;;;;14.70;58.34;99695.66;5057951;28;19927;-81
2022/01/04 10:45:22;;;;;;;;;;;;;;;15.24;56.71;99700.16;5057527;28;20408;-81
2022/01/04 10:47:47;;;;;;;;;;;;;;;15.16;55.76;99704.53;5075942;28;19936;-81
2022/01/04 10:50:12;;;;;;;;;;;;;;;14.69;57.50;99702.13;5058260;28;19920;-80
2022/01/04 10:52:38;;;;;;;;;;;;;;;15.17;56.15;99706.25;5076252;28;19999;-81
2022/01/04 10:55:13;;;;;;;;;;;;;;;14.69;57.40;99719.31;5076299;28;19948;-81
2022/01/04 10:57:38;;;;;;;;;;;;;;;15.67;53.66;99721.97;5076257;28;19931;-81
2022/01/04 11:00:17;;;;;;;;;;;;;;;14.75;56.14;99717.94;5058096;28;19916;-81
2022/01/04 11:02:42;;;;;;;;;;;;;;;15.07;55.01;99725.25;5057665;28;19917;-81
2022/01/04 11:05:12;;;;;;;;;;;;;;;15.35;54.03;99728.34;5075198;28;19924;-81
2022/01/04 11:07:55;;;;;;;;;;;;;;;15.99;52.84;99726.50;5057478;28;19917;-81
2022/01/04 11:10:20;;;;;;;;;;;;;;;16.24;52.10;99738.81;5057766;28;19964;-81
2022/01/04 11:12:45;;;;;;;;;;;;;;;15.59;52.93;99737.16;5058853;28;19916;-80
2022/01/04 11:15:12;;;;;;;;;;;;;;;16.10;52.53;99732.72;5057978;28;20369;-80
2022/01/04 11:17:38;;;;;;;;;;;;;;;15.03;54.08;99734.66;5057084;28;19916;-81
2022/01/04 11:20:03;;;;;;;;;;;;;;;15.29;53.13;99737.03;5057496;28;19965;-83
2022/01/04 11:22:29;;;;;;;;;;;;;;;15.90;52.50;99739.94;5058043;28;19921;-81
2022/01/04 11:24:54;;;;;;;;;;;;;;;15.78;52.34;99741.03;5057420;28;19990;-83
2022/01/04 11:27:20;;;;;;;;;;;;;;;15.57;52.69;99750.03;5056961;28;19989;-84
2022/01/04 11:29:47;;;;;;;;;;;;;;;15.47;53.62;99754.53;5058366;28;19923;-86
2022/01/04 11:32:15;;;;;;;;;;;;;;;16.20;51.52;99751.91;5078838;28;20381;-84
2022/01/04 11:34:56;;;;;;;;;;;;;;;15.61;52.17;99750.66;5060233;28;19916;-85
2022/01/04 11:37:22;;;;;;;;;;;;;;;15.63;52.48;99756.81;5076994;28;19920;-85
2022/01/04 11:39:48;;;;;;;;;;;;;;;15.97;51.75;99767.53;5059622;28;19982;-88
2022/01/04 11:42:31;;;;;;;;;;;;;;;15.34;52.95;99760.19;5078335;28;19916;-86
2022/01/04 11:44:57;;;;;;;;;;;;;;;15.49;52.27;99758.03;5060633;28;19917;-85
2022/01/04 11:47:23;;;;;;;;;;;;;;;15.70;52.07;99765.31;5060264;28;20263;-84
2022/01/04 11:50:07;;;;;;;;;;;;;;;16.01;51.37;99759.97;5062148;28;19920;-85
2022/01/04 11:52:49;;;;;;;;;;;;;;;15.56;52.71;99763.78;5081195;28;20011;-85
2022/01/04 11:55:21;;;;;;;;;;;;;;;15.79;51.71;99775.47;5062516;28;19962;-86
2022/01/04 11:57:47;;;;;;;;;;;;;;;15.83;51.43;99782.38;5064050;28;20085;-86
2022/01/04 12:00:22;;;;;;;;;;;;;;;13.55;56.26;99790.91;5082348;28;20401;-86
2022/01/04 12:03:00;;;;;;;;;;;;;;;14.35;55.93;99795.50;5062916;28;20275;-86
2022/01/04 12:05:28;;;;;;;;;;;;;;;14.95;53.96;99797.09;5065330;28;20007;-89
2022/01/04 12:07:55;;;;;;;;;;;;;;;15.48;52.14;99799.91;5064990;28;19942;-87
2022/01/04 12:10:20;;;;;;;;;;;;;;;15.38;53.00;99783.47;5065307;28;20354;-88
2022/01/04 12:13:04;;;;;;;;;;;;;;;14.94;52.38;99785.31;5067999;28;19923;-84
2022/01/04 12:15:32;;;;;;;;;;;;;;;14.92;52.91;99791.91;5064308;28;19916;-84
2022/01/04 12:18:02;;;;;;;;;;;;;;;14.74;53.25;99795.16;5063926;28;19929;-85
2022/01/04 12:20:42;;;;;;;;;;;;;;;14.77;52.47;99788.59;5064900;28;19908;-89
2022/01/04 12:23:25;;;;;;;;;;;;;;;14.18;53.63;99790.56;5065549;28;19963;-87
2022/01/04 12:26:13;;;;;;;;;;;;;;;14.76;52.21;99793.16;5064244;28;20417;-87
2022/01/04 12:29:05;;;;;;;;;;;;;;;15.01;51.29;99797.44;5063717;28;19924;-86
2022/01/04 12:31:31;;;;;;;;;;;;;;;14.02;53.62;99798.19;5062447;28;19920;-87
2022/01/04 12:34:00;;;;;;;;;;;;;;;14.59;52.21;99793.66;5063826;28;19920;-88
2022/01/04 12:36:26;;;;;;;;;;;;;;;14.59;51.55;99799.94;5065439;28;19916;-87
2022/01/04 12:38:52;;;;;;;;;;;;;;;14.92;50.74;99795.50;5063611;28;20393;-84
2022/01/04 12:41:18;;;;;;;;;;;;;;;14.54;51.56;99789.44;5060200;28;19928;-84
2022/01/04 12:43:46;;;;;;;;;;;;;;;14.78;50.86;99790.31;5080707;28;19917;-84
2022/01/04 12:46:12;;;;;;;;;;;;;;;14.42;51.14;99795.88;5061135;28;19967;-85
2022/01/04 12:48:47;;;;;;;;;;;;;;;14.49;51.10;99796.25;5061298;28;20413;-85
2022/01/04 12:51:33;;;;;;;;;;;;;;;14.46;51.45;99813.69;5062207;28;19921;-84
2022/01/04 12:53:59;;;;;;;;;;;;;;;14.80;51.03;99802.81;5060611;28;19975;-84